Strona główna
METAR-TAF:

METAR-TAF

Lotnisko :

Tunis, Tunezja

Port lotniczy Tunis

Szerokość geograficzna: 36-50N, Długość geograficzna: 010-14E, wysokość: 3 m

Aktualna obserwacja pogody

Raport powstał 26 minut temu, godzina 17:30 UTC
Wiatr 8 kt od zachodnio-północny zachód, zmienny między zachodnio-południowy zachód i północno-północny zachód
Temperatura 15°C
Wilgotność 59%
Ciśnienie 1019 hPa
Widzialność 10 km lub więcej
Rozproszone chmury na wysokości 1600 ft
Przerywane chmury na wysokości 4000 ft

METAR: DTTA 171730Z 29008KT 250V330 9999 SCT016 BKN040 15/07 Q1019 NOSIG

czas: 18:56 (17:56 UTC)

Prognoza

Raport powstał 56 minut temu, godzina 17:00 UTC
Prognoza ważna od 17 godzina 18 UTC do 18 godzina 18 UTC
Wiatr 15 kt od północny zachód
Widzialność 10 km lub więcej
Rozproszone chmury na wysokości 1600 ft

TAF: DTTA 171700Z 1718/1818 32015KT 9999 SCT016

Obserwacja i prognoza pogody dla ponad 4000 lotnisk (raport METAR i TAF).

Dostępne stacje oznaczono żółtymi i czerwonymi punktami na mapie.

Najedź kursorem aby zobaczyć nazwę stacji.

Kliknij aby zobaczyć obserwacje i prognozy pogody.

Aby zmienić mapę: kliknij na zielony przycisk z czarnym krzyżykiem, aby powiększyć; na zielony przycisk z myślnikiem, aby pomniejszyć; na zielone strzałki, aby przejść do map sąsiednich.


METAR-TAF: